createdAt,value
2023-07-28T00:02:30.645Z,4.8999999999999995
2023-07-28T00:05:26.170Z,4.859999999999999
2023-07-28T00:08:21.721Z,4.840000000000001
2023-07-28T00:11:17.292Z,3.38
2023-07-28T00:14:12.887Z,5.56
2023-07-28T00:17:08.390Z,5.12
2023-07-28T00:20:04.944Z,4.12
2023-07-28T00:23:00.549Z,8.24
2023-07-28T00:25:56.082Z,3.84
2023-07-28T00:28:51.641Z,5.619999999999999
2023-07-28T00:31:47.193Z,3.8
2023-07-28T00:34:42.782Z,4.42
2023-07-28T00:37:38.316Z,4.08
2023-07-28T00:40:34.869Z,2.78
2023-07-28T00:43:30.460Z,2.92
2023-07-28T00:46:27.071Z,4.8
2023-07-28T00:49:22.529Z,4.26
2023-07-28T00:52:19.140Z,4.24
2023-07-28T00:55:14.708Z,4.140000000000001
2023-07-28T00:58:11.225Z,4.32
2023-07-28T01:01:06.795Z,3.72
2023-07-28T01:04:04.365Z,3.4
2023-07-28T01:07:09.888Z,3.5200000000000005
2023-07-28T01:10:11.419Z,3.8200000000000003
2023-07-28T01:13:07.035Z,3.2399999999999998
2023-07-28T01:16:02.662Z,2.8400000000000003
2023-07-28T01:18:58.153Z,3.04
2023-07-28T01:22:01.685Z,3.5
2023-07-28T01:25:07.225Z,3.38
2023-07-28T01:28:03.821Z,5.3
2023-07-28T01:31:00.347Z,3.72
2023-07-28T01:33:55.876Z,3.6800000000000006
2023-07-28T01:36:51.440Z,3.8599999999999994
2023-07-28T01:39:47.014Z,4.5
2023-07-28T01:42:42.573Z,4.339999999999999
2023-07-28T01:45:40.157Z,5.26
2023-07-28T01:48:35.754Z,5.1
2023-07-28T01:51:31.273Z,6.1
2023-07-28T01:54:26.805Z,4.459999999999999
2023-07-28T01:57:22.378Z,4.54
2023-07-28T02:00:18.979Z,6.459999999999999
2023-07-28T02:03:14.522Z,5.62
2023-07-28T02:06:10.041Z,5.140000000000001
2023-07-28T02:09:05.637Z,4.959999999999999
2023-07-28T02:12:01.197Z,5.359999999999999
2023-07-28T02:14:56.764Z,5.38
2023-07-28T02:17:52.342Z,5.999999999999999
2023-07-28T02:20:48.893Z,5.460000000000001
2023-07-28T02:23:44.445Z,6.720000000000001
2023-07-28T02:26:39.991Z,4.92
2023-07-28T02:29:35.555Z,5.18
2023-07-28T02:32:32.148Z,4.82
2023-07-28T02:35:27.687Z,5.24
2023-07-28T02:38:23.267Z,4.5600000000000005
2023-07-28T02:41:18.834Z,4
2023-07-28T02:44:14.375Z,5.619999999999999
2023-07-28T02:47:09.964Z,4.819999999999999
2023-07-28T02:50:06.494Z,6.279999999999999
2023-07-28T02:53:02.054Z,7.779999999999999
2023-07-28T02:55:58.607Z,4.720000000000001
2023-07-28T02:58:54.174Z,5.62
2023-07-28T03:01:52.842Z,4.8
2023-07-28T03:04:48.328Z,4.3999999999999995
2023-07-28T03:07:43.831Z,6.859999999999999
2023-07-28T03:10:39.416Z,5.619999999999999
2023-07-28T03:13:35.014Z,5.659999999999999
2023-07-28T03:16:30.566Z,5.659999999999999
2023-07-28T03:19:26.072Z,5.94
2023-07-28T03:22:21.634Z,4
2023-07-28T03:25:19.239Z,5.220000000000001
2023-07-28T03:28:14.826Z,4.4799999999999995
2023-07-28T03:31:10.335Z,4.9
2023-07-28T03:34:05.924Z,5.92
2023-07-28T03:37:01.476Z,5.18
2023-07-28T03:39:57.065Z,4.499999999999999
2023-07-28T03:42:52.606Z,6.9399999999999995
2023-07-28T03:45:49.166Z,5.620000000000001
2023-07-28T03:48:44.702Z,7.260000000000001
2023-07-28T03:51:40.268Z,5.44
2023-07-28T03:54:35.828Z,5.42
2023-07-28T03:57:31.413Z,8.04
2023-07-28T04:00:26.984Z,5.04
2023-07-28T04:03:22.486Z,6.22
2023-07-28T04:06:18.086Z,5.74
2023-07-28T04:09:14.614Z,7.74
2023-07-28T04:12:10.204Z,4.68
2023-07-28T04:15:06.782Z,5.52
2023-07-28T04:18:02.368Z,5.28
2023-07-28T04:20:57.861Z,6.34
2023-07-28T04:23:53.416Z,4.66
2023-07-28T04:26:50.218Z,5.92
2023-07-28T04:29:45.551Z,4.36
2023-07-28T04:32:41.143Z,4.7
2023-07-28T04:35:37.684Z,5.1
2023-07-28T04:38:33.255Z,3.8200000000000003
2023-07-28T04:41:29.812Z,4.32
2023-07-28T04:44:25.357Z,5.3
2023-07-28T04:47:20.954Z,5.58
2023-07-28T04:50:16.468Z,4.720000000000001
2023-07-28T04:53:12.065Z,4.66
2023-07-28T04:56:08.630Z,5.9399999999999995
2023-07-28T04:59:07.220Z,5.540000000000001
2023-07-28T05:02:02.739Z,4.720000000000001
2023-07-28T05:04:58.274Z,5.779999999999999
2023-07-28T05:07:53.857Z,4.779999999999999
2023-07-28T05:10:49.460Z,4.7
2023-07-28T05:13:44.999Z,4.12
2023-07-28T05:16:40.533Z,6.839999999999999
2023-07-28T05:19:38.094Z,3.56
2023-07-28T05:22:33.668Z,3.96
2023-07-28T05:25:29.236Z,4.08
2023-07-28T05:28:25.874Z,3.22
2023-07-28T05:31:21.453Z,3.6799999999999997
2023-07-28T05:34:16.892Z,3.4799999999999995
2023-07-28T05:37:12.481Z,2.82
2023-07-28T05:40:09.085Z,4.619999999999999
2023-07-28T05:43:04.607Z,3.8400000000000007
2023-07-28T05:46:01.169Z,4.1
2023-07-28T05:48:58.704Z,2.2800000000000002
2023-07-28T05:51:54.227Z,3.66
2023-07-28T05:54:49.817Z,5.24
2023-07-28T05:57:45.369Z,2.7800000000000002
2023-07-28T06:00:42.983Z,3.56
2023-07-28T06:03:38.595Z,2.2800000000000002
2023-07-28T06:06:35.040Z,3.3200000000000003
2023-07-28T06:09:30.663Z,2.44
2023-07-28T06:12:26.205Z,2.9200000000000004
2023-07-28T06:15:21.762Z,3.94
2023-07-28T06:18:17.295Z,3.3
2023-07-28T06:21:14.869Z,3.38
2023-07-28T06:24:10.446Z,2.7400000000000007
2023-07-28T06:27:09.011Z,1.58
2023-07-28T06:30:06.559Z,2.48
2023-07-28T06:33:04.139Z,2.82
2023-07-28T06:36:00.649Z,2.2800000000000002
2023-07-28T06:38:57.188Z,2.9200000000000004
2023-07-28T06:41:52.781Z,3.46
2023-07-28T06:44:48.381Z,3.3600000000000003
2023-07-28T06:47:44.880Z,3.7600000000000002
2023-07-28T06:50:41.431Z,2.3
2023-07-28T06:53:37.018Z,2.6399999999999997
2023-07-28T06:56:32.585Z,4.720000000000001
2023-07-28T06:59:28.104Z,2.16
2023-07-28T07:02:24.707Z,2.5799999999999996
2023-07-28T07:05:20.289Z,2.3400000000000003
2023-07-28T07:08:15.810Z,1.8
2023-07-28T07:11:12.385Z,7.720000000000001
2023-07-28T07:14:08.924Z,3.54
2023-07-28T07:17:05.515Z,2.34
2023-07-28T07:20:01.062Z,2.1199999999999997
2023-07-28T07:22:58.291Z,4.16
2023-07-28T07:25:55.224Z,3.4
2023-07-28T07:28:50.744Z,2.66
2023-07-28T07:31:46.285Z,2.42
2023-07-28T07:34:41.824Z,3.88
2023-07-28T07:37:38.453Z,3.2
2023-07-28T07:40:34.005Z,1.98
2023-07-28T07:43:29.553Z,4.66
2023-07-28T07:46:27.104Z,2.52
2023-07-28T07:49:23.654Z,2.9199999999999995
2023-07-28T07:52:19.232Z,5.62
2023-07-28T07:55:14.824Z,1.8800000000000001
2023-07-28T07:58:10.386Z,2.88
2023-07-28T08:01:07.990Z,3.0999999999999996
2023-07-28T08:04:05.515Z,2.9
2023-07-28T08:07:02.051Z,4
2023-07-28T08:09:57.608Z,9.54
2023-07-28T08:12:53.152Z,3.02
2023-07-28T08:15:49.746Z,3.2400000000000007
2023-07-28T08:18:47.275Z,2.6399999999999997
2023-07-28T08:21:43.849Z,2.4200000000000004
2023-07-28T08:24:39.406Z,3.9799999999999995
2023-07-28T08:27:35.947Z,2.6599999999999997
2023-07-28T08:30:32.516Z,2.94
2023-07-28T08:33:28.035Z,2.64
2023-07-28T08:36:23.615Z,2.9799999999999995
2023-07-28T08:39:19.237Z,2.26
2023-07-28T08:42:14.764Z,3.6400000000000006
2023-07-28T08:45:10.356Z,2.04
2023-07-28T08:48:07.104Z,3.1599999999999997
2023-07-28T08:51:03.451Z,2.54
2023-07-28T08:53:59.007Z,3.66
2023-07-28T08:56:58.528Z,2.44
2023-07-28T08:59:55.116Z,2.38
2023-07-28T09:02:51.735Z,3.1799999999999997
2023-07-28T09:05:50.234Z,2.74
2023-07-28T09:08:47.762Z,3.9199999999999995
2023-07-28T09:11:47.346Z,2.86
2023-07-28T09:14:45.882Z,2
2023-07-28T09:17:43.459Z,3.44
2023-07-28T09:20:41.981Z,3.5200000000000005
2023-07-28T09:23:40.540Z,3.3200000000000003
2023-07-28T09:26:39.195Z,2.32
2023-07-28T09:29:41.735Z,2.36
2023-07-28T09:32:39.321Z,3.04
2023-07-28T09:35:48.743Z,2.8400000000000003
2023-07-28T09:38:44.271Z,6.82
2023-07-28T09:41:45.810Z,3.28
2023-07-28T09:44:41.449Z,2.24
2023-07-28T09:47:38.981Z,2.44
2023-07-28T09:50:38.521Z,3.3200000000000003
2023-07-28T09:53:37.087Z,2.58
2023-07-28T09:56:33.644Z,3
2023-07-28T09:59:33.199Z,3.4799999999999995
2023-07-28T10:02:29.826Z,2.7199999999999998
2023-07-28T10:05:27.298Z,3.9
2023-07-28T10:08:26.650Z,5.1
2023-07-28T10:11:26.416Z,3.8800000000000003
2023-07-28T10:14:28.021Z,2.42
2023-07-28T10:17:28.484Z,3.28
2023-07-28T10:20:30.057Z,4.12
2023-07-28T10:23:25.570Z,3.4599999999999995
2023-07-28T10:26:36.332Z,3.44
2023-07-28T10:29:38.681Z,4.779999999999999
2023-07-28T10:32:38.243Z,3
2023-07-28T10:35:44.753Z,3.4
2023-07-28T10:38:55.311Z,3.18
2023-07-28T10:44:56.376Z,5.58
2023-07-28T10:47:53.985Z,5.18
2023-07-28T10:50:51.538Z,2.52
2023-07-28T10:53:50.033Z,2.64
2023-07-28T10:56:45.623Z,2.96
2023-07-28T10:59:43.188Z,3.94
2023-07-28T11:02:43.807Z,2.96
2023-07-28T11:05:43.307Z,2.74
2023-07-28T11:08:39.846Z,5.1
2023-07-28T11:11:42.709Z,4.859999999999999
2023-07-28T11:14:41.926Z,2.7399999999999998
2023-07-28T11:17:40.570Z,2.38
2023-07-28T11:20:37.055Z,3.5199999999999996
2023-07-28T11:23:34.601Z,2.28
2023-07-28T11:26:31.165Z,2.7199999999999998
2023-07-28T11:29:27.697Z,3.06
2023-07-28T11:32:23.291Z,3.6199999999999997
2023-07-28T11:35:20.854Z,3.88
2023-07-28T11:38:18.424Z,2.38
2023-07-28T11:41:17.349Z,4.6
2023-07-28T11:44:21.522Z,2.8000000000000003
2023-07-28T11:47:19.056Z,3.9599999999999995
2023-07-28T11:50:23.586Z,10.04
2023-07-28T11:53:21.140Z,2.04
2023-07-28T11:56:16.666Z,1.48
2023-07-28T11:59:15.236Z,1.78
2023-07-28T12:05:21.358Z,1.8800000000000001
2023-07-28T12:08:25.887Z,2.3600000000000003
2023-07-28T12:20:37.001Z,4.819999999999999
2023-07-28T12:26:35.278Z,2.2
2023-07-28T12:29:31.788Z,2.72
2023-07-28T12:32:35.970Z,2.3400000000000003
2023-07-28T12:41:41.221Z,5.459999999999999
2023-07-28T12:47:37.712Z,1.58
2023-07-28T12:50:41.564Z,1.9
2023-07-28T12:53:32.130Z,2.2800000000000002
2023-07-28T12:59:26.578Z,4.8
2023-07-28T13:02:21.823Z,3.9799999999999995
2023-07-28T13:05:18.442Z,2.6599999999999997
2023-07-28T13:08:14.920Z,3.4800000000000004
2023-07-28T13:14:11.051Z,2.94
2023-07-28T13:17:07.604Z,6.180000000000001
2023-07-28T13:20:05.106Z,4.279999999999999
2023-07-28T13:23:00.740Z,2.38
2023-07-28T13:25:56.289Z,4.18
2023-07-28T13:28:52.804Z,3.2399999999999998
2023-07-28T13:31:49.416Z,3.1
2023-07-28T13:34:45.978Z,1.92
2023-07-28T13:37:42.565Z,5.159999999999999
2023-07-28T13:40:39.091Z,3.3200000000000003
2023-07-28T13:43:38.660Z,3.7399999999999998
2023-07-28T13:46:34.181Z,2.04
2023-07-28T13:49:29.797Z,2.5200000000000005
2023-07-28T13:52:25.776Z,4.2
2023-07-28T13:55:40.910Z,3.3200000000000003
2023-07-28T13:58:23.433Z,3.54
2023-07-28T14:01:19.043Z,2.7199999999999998
2023-07-28T14:04:15.550Z,3.2
2023-07-28T14:07:11.143Z,2.2399999999999998
2023-07-28T14:10:09.678Z,1.9
2023-07-28T14:13:05.326Z,4.64
2023-07-28T14:16:00.846Z,3.9200000000000004
2023-07-28T14:18:56.310Z,2.1800000000000006
2023-07-28T14:21:52.912Z,5.300000000000001
2023-07-28T14:24:49.475Z,3
2023-07-28T14:27:45.026Z,1.6800000000000002
2023-07-28T14:30:46.648Z,5.279999999999999
2023-07-28T14:33:42.155Z,3.4799999999999995
2023-07-28T14:36:37.714Z,4.4399999999999995
2023-07-28T14:39:33.240Z,4.4
2023-07-28T14:42:28.843Z,4.040000000000001
2023-07-28T14:45:25.377Z,2.04
2023-07-28T14:48:20.954Z,2.6799999999999997
2023-07-28T14:51:16.541Z,2.7399999999999998
2023-07-28T14:54:13.037Z,2.7600000000000007
2023-07-28T14:57:28.778Z,2.3
2023-07-28T15:00:15.174Z,1.9600000000000002
2023-07-28T15:03:10.796Z,2.66
2023-07-28T15:06:06.571Z,2.6799999999999997
2023-07-28T15:09:01.893Z,2.44
2023-07-28T15:11:58.409Z,2.1
2023-07-28T15:14:53.988Z,2.1799999999999997
2023-07-28T15:17:49.619Z,2.02
2023-07-28T15:20:46.107Z,2.72
2023-07-28T15:23:41.633Z,5.88
2023-07-28T15:26:39.273Z,2.56
2023-07-28T15:29:35.744Z,2.12
2023-07-28T15:32:32.352Z,2.46
2023-07-28T15:35:27.889Z,2.1
2023-07-28T15:38:24.473Z,2.86
2023-07-28T15:41:20.032Z,2.2399999999999998
2023-07-28T15:44:16.582Z,2.1799999999999997
2023-07-28T15:47:12.130Z,3.44
2023-07-28T15:50:08.749Z,3.8600000000000003
2023-07-28T15:53:05.250Z,3.3200000000000003
2023-07-28T15:56:00.767Z,6.0200000000000005
2023-07-28T15:58:56.388Z,4.840000000000001
2023-07-28T16:01:51.993Z,3.7600000000000002
2023-07-28T16:04:47.531Z,3.62
2023-07-28T16:07:43.066Z,3.1000000000000005
2023-07-28T16:10:41.743Z,5.12
2023-07-28T16:13:37.166Z,2.96
2023-07-28T16:16:32.806Z,3.2
2023-07-28T16:19:28.304Z,2.7800000000000002
2023-07-28T16:22:26.850Z,3.08
2023-07-28T16:25:24.462Z,4.26
2023-07-28T16:28:21.012Z,4
2023-07-28T16:31:16.598Z,2.48
2023-07-28T16:34:12.112Z,3.34
2023-07-28T16:37:07.670Z,2.3
2023-07-28T16:40:04.236Z,2.2600000000000002
2023-07-28T16:42:59.809Z,3.8599999999999994
2023-07-28T16:45:55.391Z,3.96
2023-07-28T16:48:51.941Z,2.94
2023-07-28T16:51:48.446Z,4.52
2023-07-28T16:54:44.001Z,3.04
2023-07-28T16:57:40.569Z,3.8
2023-07-28T17:00:37.173Z,3.46
2023-07-28T17:03:32.793Z,4.2
2023-07-28T17:06:28.259Z,4.5
2023-07-28T17:09:25.822Z,4.64
2023-07-28T17:12:21.396Z,2.4799999999999995
2023-07-28T17:15:26.413Z,2.6399999999999997
2023-07-28T17:18:17.566Z,7.219999999999999
2023-07-28T17:21:13.052Z,4.92
2023-07-28T17:24:08.610Z,3.78
2023-07-28T17:27:06.205Z,2.88
2023-07-28T17:30:01.768Z,2.92
2023-07-28T17:32:58.328Z,4.02
2023-07-28T17:35:53.866Z,4.08
2023-07-28T17:38:49.432Z,3.8200000000000003
2023-07-28T17:41:45.023Z,2.88
2023-07-28T17:44:40.525Z,2.7399999999999998
2023-07-28T17:47:38.139Z,3.3200000000000003
2023-07-28T17:50:33.637Z,4.58
2023-07-28T17:53:31.256Z,3.88
2023-07-28T17:56:26.768Z,6.82
2023-07-28T17:59:23.336Z,4.58
2023-07-28T18:02:18.939Z,4.46
2023-07-28T18:05:14.475Z,6.359999999999999
2023-07-28T18:08:13.065Z,7.92
2023-07-28T18:11:08.591Z,8.66
2023-07-28T18:14:05.180Z,10.18
2023-07-28T18:17:02.830Z,9.84
2023-07-28T18:19:59.245Z,5.720000000000001
2023-07-28T18:22:54.843Z,7.659999999999999
2023-07-28T18:25:50.393Z,6.14
2023-07-28T18:28:45.954Z,3.94
2023-07-28T18:31:41.515Z,9.66
2023-07-28T18:34:37.098Z,5.260000000000001
2023-07-28T18:37:32.638Z,3.7599999999999993
2023-07-28T18:40:30.542Z,4.859999999999999
2023-07-28T18:43:27.773Z,4.4399999999999995
2023-07-28T18:46:23.302Z,8.46
2023-07-28T18:49:18.892Z,6.459999999999999
2023-07-28T18:52:14.454Z,5.839999999999999
2023-07-28T18:55:10.003Z,5.6
2023-07-28T18:58:05.550Z,8.580000000000002
2023-07-28T19:01:01.092Z,13.280000000000001
2023-07-28T19:03:57.769Z,5.76
2023-07-28T19:06:53.231Z,4.44
2023-07-28T19:09:49.797Z,6.62
2023-07-28T19:12:45.372Z,4.84
2023-07-28T19:15:47.506Z,4.88
2023-07-28T19:18:43.492Z,5.54
2023-07-28T19:21:39.073Z,6.82
2023-07-28T19:24:34.600Z,5.44
2023-07-28T19:27:32.308Z,11.139999999999999
2023-07-28T19:30:27.739Z,7.980000000000001
2023-07-28T19:33:23.258Z,26.54
2023-07-28T19:36:19.808Z,35.62
2023-07-28T19:39:15.403Z,32.839999999999996
2023-07-28T19:42:10.960Z,7.24
2023-07-28T19:45:07.546Z,5.040000000000001
2023-07-28T19:48:04.181Z,5.4
2023-07-28T19:51:00.644Z,10.34
2023-07-28T19:54:00.177Z,20
2023-07-28T19:56:57.744Z,14.7
2023-07-28T19:59:53.297Z,12.360000000000001
2023-07-28T20:02:48.944Z,17.939999999999998
2023-07-28T20:05:45.441Z,22.68
2023-07-28T20:08:41.021Z,11.739999999999998
2023-07-28T20:11:36.548Z,7.459999999999999
2023-07-28T20:14:32.115Z,8.6
2023-07-28T20:17:29.691Z,8.24
2023-07-28T20:20:25.216Z,8.74
2023-07-28T20:23:29.767Z,7.459999999999999
2023-07-28T20:26:26.311Z,8.22
2023-07-28T20:29:21.957Z,6.08
2023-07-28T20:32:17.494Z,10.820000000000002
2023-07-28T20:35:15.075Z,5.82
2023-07-28T20:38:10.533Z,6.6
2023-07-28T20:41:07.133Z,7
2023-07-28T20:44:04.691Z,5.959999999999999
2023-07-28T20:47:05.275Z,7.62
2023-07-28T20:50:01.809Z,5.779999999999999
2023-07-28T20:52:58.355Z,8.4
2023-07-28T20:55:53.956Z,4.74
2023-07-28T20:58:50.516Z,7.3
2023-07-28T21:01:46.025Z,7.4
2023-07-28T21:04:42.617Z,6.2
2023-07-28T21:07:40.179Z,5.46
2023-07-28T21:10:36.738Z,5.4
2023-07-28T21:13:32.284Z,4.4
2023-07-28T21:16:27.951Z,5.26
2023-07-28T21:19:23.398Z,5.540000000000001
2023-07-28T21:22:19.991Z,7.219999999999999
2023-07-28T21:25:15.510Z,4.779999999999999
2023-07-28T21:28:12.103Z,4.34
2023-07-28T21:31:07.691Z,6.4799999999999995
2023-07-28T21:34:06.215Z,4.02
2023-07-28T21:37:01.744Z,3.38
2023-07-28T21:39:58.295Z,3.9
2023-07-28T21:42:53.878Z,4.76
2023-07-28T21:45:50.473Z,4.5
2023-07-28T21:48:47.031Z,8.319999999999999
2023-07-28T21:51:42.568Z,7.140000000000001
2023-07-28T21:54:38.104Z,3.6
2023-07-28T21:57:33.680Z,6.959999999999999
2023-07-28T22:00:29.207Z,7.359999999999999
2023-07-28T22:03:24.875Z,4.12
2023-07-28T22:06:20.397Z,5.739999999999999
2023-07-28T22:09:16.997Z,6.82
2023-07-28T22:12:12.502Z,5.159999999999999
2023-07-28T22:15:09.083Z,4.26
2023-07-28T22:18:04.639Z,4.76
2023-07-28T22:21:02.212Z,6.5200000000000005
2023-07-28T22:23:57.769Z,5.220000000000001
2023-07-28T22:26:53.272Z,4.46
2023-07-28T22:29:51.877Z,3.9
2023-07-28T22:32:47.443Z,4.1
2023-07-28T22:35:42.991Z,3.72
2023-07-28T22:38:39.529Z,6.1
2023-07-28T22:41:37.430Z,5.04
2023-07-28T22:44:34.654Z,3.9
2023-07-28T22:47:30.232Z,5.08
2023-07-28T22:50:26.770Z,3.88
2023-07-28T22:53:22.305Z,5.619999999999999
2023-07-28T22:56:17.908Z,5.700000000000001
2023-07-28T22:59:13.452Z,4.42
2023-07-28T23:02:10.060Z,2.96
2023-07-28T23:05:09.564Z,3.04
2023-07-28T23:08:06.127Z,4.4
2023-07-28T23:11:01.691Z,4.32
2023-07-28T23:13:57.200Z,4.8
2023-07-28T23:16:53.885Z,6.160000000000001
2023-07-28T23:19:50.373Z,5.220000000000001
2023-07-28T23:22:45.963Z,3.54
2023-07-28T23:25:41.541Z,5.340000000000001
2023-07-28T23:28:37.084Z,3.78
2023-07-28T23:31:43.640Z,3.8800000000000003
2023-07-28T23:34:39.150Z,7.659999999999999
2023-07-28T23:37:34.747Z,4.3
2023-07-28T23:40:30.264Z,3.9599999999999995
2023-07-28T23:43:25.845Z,3.7
2023-07-28T23:46:25.433Z,3.6599999999999993
2023-07-28T23:49:20.926Z,4.86
2023-07-28T23:52:18.545Z,4.34
2023-07-28T23:55:14.053Z,5.12
2023-07-28T23:58:10.622Z,4.840000000000001
